sensor_id;sensor_type;location;lat;lon;timestamp;pressure;altitude;pressure_sealevel;temperature;humidity
6413;BME280;3239;48.714;9.472;2023-06-22T00:01:28;98397.91;;;21.80;100.00
6413;BME280;3239;48.714;9.472;2023-06-22T00:03:54;98395.72;;;21.69;100.00
6413;BME280;3239;48.714;9.472;2023-06-22T00:06:19;98391.50;;;21.68;100.00
6413;BME280;3239;48.714;9.472;2023-06-22T00:08:45;98401.47;;;21.71;100.00
6413;BME280;3239;48.714;9.472;2023-06-22T00:11:11;98396.91;;;21.66;100.00
6413;BME280;3239;48.714;9.472;2023-06-22T00:13:38;98393.13;;;21.61;100.00
6413;BME280;3239;48.714;9.472;2023-06-22T00:16:04;98383.16;;;21.58;100.00
6413;BME280;3239;48.714;9.472;2023-06-22T00:18:30;98390.66;;;21.56;100.00
6413;BME280;3239;48.714;9.472;2023-06-22T00:20:57;98391.09;;;21.52;100.00
6413;BME280;3239;48.714;9.472;2023-06-22T00:23:25;98396.13;;;21.44;100.00
6413;BME280;3239;48.714;9.472;2023-06-22T00:25:51;98405.44;;;21.28;100.00
6413;BME280;3239;48.714;9.472;2023-06-22T00:28:17;98418.94;;;21.22;100.00
6413;BME280;3239;48.714;9.472;2023-06-22T00:30:43;98432.31;;;21.04;100.00
6413;BME280;3239;48.714;9.472;2023-06-22T00:33:09;98439.50;;;21.07;100.00
6413;BME280;3239;48.714;9.472;2023-06-22T00:35:35;98436.44;;;21.03;100.00
6413;BME280;3239;48.714;9.472;2023-06-22T00:38:01;98445.97;;;21.00;100.00
6413;BME280;3239;48.714;9.472;2023-06-22T00:40:28;98442.88;;;20.96;100.00
6413;BME280;3239;48.714;9.472;2023-06-22T00:42:55;98447.13;;;20.88;100.00
6413;BME280;3239;48.714;9.472;2023-06-22T00:45:25;98453.00;;;20.82;100.00
6413;BME280;3239;48.714;9.472;2023-06-22T00:47:56;98448.91;;;20.83;100.00
6413;BME280;3239;48.714;9.472;2023-06-22T00:50:25;98445.06;;;20.79;100.00
6413;BME280;3239;48.714;9.472;2023-06-22T00:52:54;98445.69;;;20.77;100.00
6413;BME280;3239;48.714;9.472;2023-06-22T00:55:22;98443.16;;;20.72;100.00
6413;BME280;3239;48.714;9.472;2023-06-22T00:57:48;98435.25;;;20.68;100.00
6413;BME280;3239;48.714;9.472;2023-06-22T01:00:18;98443.19;;;20.62;100.00
6413;BME280;3239;48.714;9.472;2023-06-22T01:02:45;98446.41;;;20.59;100.00
6413;BME280;3239;48.714;9.472;2023-06-22T01:05:16;98450.63;;;20.50;100.00
6413;BME280;3239;48.714;9.472;2023-06-22T01:08:00;98459.59;;;20.49;100.00
6413;BME280;3239;48.714;9.472;2023-06-22T01:16:33;98509.06;;;20.22;100.00
6413;BME280;3239;48.714;9.472;2023-06-22T01:21:45;98520.91;;;20.22;100.00
6413;BME280;3239;48.714;9.472;2023-06-22T01:24:30;98527.63;;;20.19;100.00
6413;BME280;3239;48.714;9.472;2023-06-22T01:27:39;98534.34;;;20.16;100.00
6413;BME280;3239;48.714;9.472;2023-06-22T01:30:11;98531.00;;;20.18;100.00
6413;BME280;3239;48.714;9.472;2023-06-22T01:32:40;98531.31;;;20.22;100.00
6413;BME280;3239;48.714;9.472;2023-06-22T01:35:08;98535.56;;;20.23;100.00
6413;BME280;3239;48.714;9.472;2023-06-22T01:37:37;98549.28;;;20.11;100.00
6413;BME280;3239;48.714;9.472;2023-06-22T01:40:05;98563.75;;;20.10;100.00
6413;BME280;3239;48.714;9.472;2023-06-22T01:42:32;98556.38;;;20.05;100.00
6413;BME280;3239;48.714;9.472;2023-06-22T01:44:59;98546.25;;;20.00;100.00
6413;BME280;3239;48.714;9.472;2023-06-22T01:47:26;98552.25;;;19.96;100.00
6413;BME280;3239;48.714;9.472;2023-06-22T01:49:53;98557.38;;;20.00;100.00
6413;BME280;3239;48.714;9.472;2023-06-22T01:52:19;98556.09;;;20.01;100.00
6413;BME280;3239;48.714;9.472;2023-06-22T01:54:47;98544.88;;;20.08;100.00
6413;BME280;3239;48.714;9.472;2023-06-22T01:57:13;98530.22;;;20.08;100.00
6413;BME280;3239;48.714;9.472;2023-06-22T02:02:10;98534.09;;;19.95;100.00
6413;BME280;3239;48.714;9.472;2023-06-22T02:05:06;98551.94;;;19.92;100.00
6413;BME280;3239;48.714;9.472;2023-06-22T02:07:41;98557.03;;;19.86;100.00
6413;BME280;3239;48.714;9.472;2023-06-22T02:10:10;98561.56;;;19.82;100.00
6413;BME280;3239;48.714;9.472;2023-06-22T02:12:39;98559.78;;;19.77;100.00
6413;BME280;3239;48.714;9.472;2023-06-22T02:15:07;98565.44;;;19.69;100.00
6413;BME280;3239;48.714;9.472;2023-06-22T02:17:33;98560.63;;;19.70;100.00
6413;BME280;3239;48.714;9.472;2023-06-22T02:20:02;98565.44;;;19.69;100.00
6413;BME280;3239;48.714;9.472;2023-06-22T02:22:34;98564.38;;;19.65;100.00
6413;BME280;3239;48.714;9.472;2023-06-22T02:25:00;98559.66;;;19.58;100.00
6413;BME280;3239;48.714;9.472;2023-06-22T02:27:26;98577.50;;;19.55;100.00
6413;BME280;3239;48.714;9.472;2023-06-22T02:29:51;98581.75;;;19.56;100.00
6413;BME280;3239;48.714;9.472;2023-06-22T02:32:17;98587.28;;;19.56;100.00
6413;BME280;3239;48.714;9.472;2023-06-22T02:34:43;98584.94;;;19.52;100.00
6413;BME280;3239;48.714;9.472;2023-06-22T02:37:15;98583.16;;;19.47;100.00
6413;BME280;3239;48.714;9.472;2023-06-22T02:39:41;98577.13;;;19.41;100.00
6413;BME280;3239;48.714;9.472;2023-06-22T02:42:07;98587.34;;;19.39;100.00
6413;BME280;3239;48.714;9.472;2023-06-22T02:44:33;98593.88;;;19.34;100.00
6413;BME280;3239;48.714;9.472;2023-06-22T02:46:59;98589.44;;;19.31;100.00
6413;BME280;3239;48.714;9.472;2023-06-22T02:49:25;98603.75;;;19.27;100.00
6413;BME280;3239;48.714;9.472;2023-06-22T02:51:50;98604.75;;;19.22;100.00
6413;BME280;3239;48.714;9.472;2023-06-22T02:54:16;98608.66;;;19.19;100.00
6413;BME280;3239;48.714;9.472;2023-06-22T02:56:42;98606.84;;;19.14;100.00
6413;BME280;3239;48.714;9.472;2023-06-22T02:59:11;98604.63;;;19.13;100.00
6413;BME280;3239;48.714;9.472;2023-06-22T03:01:37;98599.31;;;19.07;100.00
6413;BME280;3239;48.714;9.472;2023-06-22T03:04:06;98598.81;;;19.01;100.00
6413;BME280;3239;48.714;9.472;2023-06-22T03:06:33;98602.50;;;19.21;100.00
6413;BME280;3239;48.714;9.472;2023-06-22T03:09:05;98593.69;;;19.15;100.00
6413;BME280;3239;48.714;9.472;2023-06-22T03:11:32;98593.38;;;19.11;100.00
6413;BME280;3239;48.714;9.472;2023-06-22T03:13:59;98586.03;;;19.06;100.00
6413;BME280;3239;48.714;9.472;2023-06-22T03:16:25;98592.72;;;19.03;100.00
6413;BME280;3239;48.714;9.472;2023-06-22T03:18:51;98597.69;;;19.04;100.00
6413;BME280;3239;48.714;9.472;2023-06-22T03:21:19;98600.81;;;19.08;100.00
6413;BME280;3239;48.714;9.472;2023-06-22T03:23:45;98599.00;;;19.03;100.00
6413;BME280;3239;48.714;9.472;2023-06-22T03:26:11;98604.03;;;18.97;100.00
6413;BME280;3239;48.714;9.472;2023-06-22T03:28:37;98603.72;;;18.93;100.00
6413;BME280;3239;48.714;9.472;2023-06-22T03:31:04;98602.44;;;18.94;100.00
6413;BME280;3239;48.714;9.472;2023-06-22T03:33:32;98603.31;;;18.97;100.00
6413;BME280;3239;48.714;9.472;2023-06-22T03:35:57;98602.56;;;18.96;100.00
6413;BME280;3239;48.714;9.472;2023-06-22T03:38:23;98599.09;;;18.96;100.00
6413;BME280;3239;48.714;9.472;2023-06-22T03:40:49;98602.75;;;18.98;100.00
6413;BME280;3239;48.714;9.472;2023-06-22T03:43:15;98600.81;;;19.08;100.00
6413;BME280;3239;48.714;9.472;2023-06-22T03:45:40;98601.72;;;19.11;100.00
6413;BME280;3239;48.714;9.472;2023-06-22T03:48:06;98595.06;;;19.06;100.00
6413;BME280;3239;48.714;9.472;2023-06-22T03:50:32;98590.84;;;19.05;100.00
6413;BME280;3239;48.714;9.472;2023-06-22T03:52:57;98594.34;;;19.06;100.00
6413;BME280;3239;48.714;9.472;2023-06-22T03:55:23;98591.56;;;19.06;100.00
6413;BME280;3239;48.714;9.472;2023-06-22T03:57:49;98585.84;;;19.04;100.00
6413;BME280;3239;48.714;9.472;2023-06-22T04:00:15;98590.41;;;19.09;100.00
6413;BME280;3239;48.714;9.472;2023-06-22T04:02:43;98592.38;;;19.16;100.00
6413;BME280;3239;48.714;9.472;2023-06-22T04:05:09;98599.41;;;19.17;100.00
6413;BME280;3239;48.714;9.472;2023-06-22T04:07:35;98590.34;;;19.16;100.00
6413;BME280;3239;48.714;9.472;2023-06-22T04:10:04;98588.47;;;19.19;100.00
6413;BME280;3239;48.714;9.472;2023-06-22T04:12:30;98589.53;;;19.23;100.00
6413;BME280;3239;48.714;9.472;2023-06-22T04:14:55;98575.66;;;19.23;100.00
6413;BME280;3239;48.714;9.472;2023-06-22T04:17:21;98577.63;;;19.30;100.00
6413;BME280;3239;48.714;9.472;2023-06-22T04:19:50;98571.66;;;19.34;100.00
6413;BME280;3239;48.714;9.472;2023-06-22T04:22:16;98559.88;;;19.43;100.00
6413;BME280;3239;48.714;9.472;2023-06-22T04:24:42;98550.94;;;19.44;100.00
6413;BME280;3239;48.714;9.472;2023-06-22T04:27:08;98539.09;;;19.44;100.00
6413;BME280;3239;48.714;9.472;2023-06-22T04:29:34;98541.22;;;19.53;100.00
6413;BME280;3239;48.714;9.472;2023-06-22T04:31:59;98530.38;;;19.57;100.00
6413;BME280;3239;48.714;9.472;2023-06-22T04:34:29;98524.84;;;19.57;100.00
6413;BME280;3239;48.714;9.472;2023-06-22T04:36:55;98518.28;;;19.62;100.00
6413;BME280;3239;48.714;9.472;2023-06-22T04:39:21;98536.31;;;19.70;100.00
6413;BME280;3239;48.714;9.472;2023-06-22T04:41:47;98527.88;;;19.78;100.00
6413;BME280;3239;48.714;9.472;2023-06-22T04:44:15;98512.72;;;19.88;100.00
6413;BME280;3239;48.714;9.472;2023-06-22T04:46:54;98503.63;;;19.88;100.00
6413;BME280;3239;48.714;9.472;2023-06-22T04:49:25;98489.47;;;20.03;100.00
6413;BME280;3239;48.714;9.472;2023-06-22T04:52:01;98469.16;;;20.10;100.00
6413;BME280;3239;48.714;9.472;2023-06-22T04:54:28;98460.09;;;20.09;100.00
6413;BME280;3239;48.714;9.472;2023-06-22T04:56:53;98457.78;;;20.15;100.00
6413;BME280;3239;48.714;9.472;2023-06-22T04:59:26;98451.34;;;20.22;100.00
6413;BME280;3239;48.714;9.472;2023-06-22T05:01:55;98449.88;;;20.12;100.00
6413;BME280;3239;48.714;9.472;2023-06-22T05:04:22;98456.78;;;20.30;100.00
6413;BME280;3239;48.714;9.472;2023-06-22T05:06:52;98453.84;;;20.28;100.00
6413;BME280;3239;48.714;9.472;2023-06-22T05:09:18;98445.06;;;20.31;100.00
6413;BME280;3239;48.714;9.472;2023-06-22T05:11:45;98443.03;;;20.51;100.00
6413;BME280;3239;48.714;9.472;2023-06-22T05:14:11;98426.16;;;20.68;100.00
6413;BME280;3239;48.714;9.472;2023-06-22T05:16:37;98413.41;;;20.84;100.00
6413;BME280;3239;48.714;9.472;2023-06-22T05:19:03;98399.06;;;20.97;100.00
6413;BME280;3239;48.714;9.472;2023-06-22T05:21:30;98385.59;;;20.93;100.00
6413;BME280;3239;48.714;9.472;2023-06-22T05:23:57;98351.84;;;21.39;100.00
6413;BME280;3239;48.714;9.472;2023-06-22T05:26:26;98326.28;;;21.12;100.00
6413;BME280;3239;48.714;9.472;2023-06-22T05:28:53;98332.34;;;21.29;100.00
6413;BME280;3239;48.714;9.472;2023-06-22T05:31:19;98313.03;;;21.52;100.00
6413;BME280;3239;48.714;9.472;2023-06-22T05:33:46;98302.69;;;21.64;100.00
6413;BME280;3239;48.714;9.472;2023-06-22T05:36:13;98279.97;;;21.58;100.00
6413;BME280;3239;48.714;9.472;2023-06-22T05:38:39;98280.91;;;21.51;100.00
6413;BME280;3239;48.714;9.472;2023-06-22T05:41:06;98256.16;;;21.88;100.00
6413;BME280;3239;48.714;9.472;2023-06-22T05:43:32;98244.31;;;21.99;100.00
6413;BME280;3239;48.714;9.472;2023-06-22T05:45:59;98229.41;;;21.94;100.00
6413;BME280;3239;48.714;9.472;2023-06-22T05:48:25;98223.78;;;22.15;100.00
6413;BME280;3239;48.714;9.472;2023-06-22T05:50:52;98231.56;;;22.28;100.00
6413;BME280;3239;48.714;9.472;2023-06-22T05:53:18;98209.13;;;22.26;100.00
6413;BME280;3239;48.714;9.472;2023-06-22T05:55:44;98203.09;;;22.41;100.00
6413;BME280;3239;48.714;9.472;2023-06-22T05:58:09;98195.09;;;22.59;100.00
6413;BME280;3239;48.714;9.472;2023-06-22T06:00:36;98183.34;;;22.83;100.00
6413;BME280;3239;48.714;9.472;2023-06-22T06:03:01;98188.06;;;23.04;100.00
6413;BME280;3239;48.714;9.472;2023-06-22T06:05:31;98171.53;;;23.08;100.00
6413;BME280;3239;48.714;9.472;2023-06-22T06:07:58;98157.00;;;23.46;100.00
6413;BME280;3239;48.714;9.472;2023-06-22T06:10:24;98142.63;;;23.51;100.00
6413;BME280;3239;48.714;9.472;2023-06-22T06:12:51;98142.44;;;23.72;100.00
6413;BME280;3239;48.714;9.472;2023-06-22T06:15:17;98127.88;;;23.87;100.00
6413;BME280;3239;48.714;9.472;2023-06-22T06:17:52;98122.00;;;24.20;100.00
6413;BME280;3239;48.714;9.472;2023-06-22T06:20:23;98110.53;;;24.54;100.00
6413;BME280;3239;48.714;9.472;2023-06-22T06:22:49;98113.47;;;24.70;100.00
6413;BME280;3239;48.714;9.472;2023-06-22T06:25:16;98098.13;;;24.98;100.00
6413;BME280;3239;48.714;9.472;2023-06-22T06:27:48;98097.22;;;25.36;100.00
6413;BME280;3239;48.714;9.472;2023-06-22T06:30:17;98093.94;;;24.99;100.00
6413;BME280;3239;48.714;9.472;2023-06-22T06:32:44;98093.16;;;25.68;100.00
6413;BME280;3239;48.714;9.472;2023-06-22T06:35:14;98088.75;;;25.20;100.00
6413;BME280;3239;48.714;9.472;2023-06-22T06:37:45;98095.28;;;25.83;100.00
6413;BME280;3239;48.714;9.472;2023-06-22T06:40:13;98095.34;;;25.40;100.00
6413;BME280;3239;48.714;9.472;2023-06-22T06:42:49;98070.91;;;25.72;100.00
6413;BME280;3239;48.714;9.472;2023-06-22T06:45:22;98075.44;;;25.21;100.00
6413;BME280;3239;48.714;9.472;2023-06-22T06:47:50;98076.13;;;25.93;100.00
6413;BME280;3239;48.714;9.472;2023-06-22T06:50:17;98078.06;;;26.04;100.00
6413;BME280;3239;48.714;9.472;2023-06-22T06:52:43;98070.16;;;26.47;100.00
6413;BME280;3239;48.714;9.472;2023-06-22T06:55:09;98076.97;;;26.57;100.00
6413;BME280;3239;48.714;9.472;2023-06-22T06:57:38;98067.75;;;26.24;100.00
6413;BME280;3239;48.714;9.472;2023-06-22T07:00:06;98066.66;;;26.95;100.00
6413;BME280;3239;48.714;9.472;2023-06-22T07:02:35;98063.63;;;26.73;100.00
6413;BME280;3239;48.714;9.472;2023-06-22T07:05:01;98061.66;;;26.60;100.00
6413;BME280;3239;48.714;9.472;2023-06-22T07:07:30;98060.97;;;27.10;100.00
6413;BME280;3239;48.714;9.472;2023-06-22T07:09:55;98056.34;;;27.34;100.00
6413;BME280;3239;48.714;9.472;2023-06-22T07:12:21;98058.59;;;27.20;100.00
6413;BME280;3239;48.714;9.472;2023-06-22T07:14:47;98053.53;;;27.69;100.00
6413;BME280;3239;48.714;9.472;2023-06-22T07:17:13;98056.72;;;27.97;100.00
6413;BME280;3239;48.714;9.472;2023-06-22T07:19:38;98049.94;;;27.67;100.00
6413;BME280;3239;48.714;9.472;2023-06-22T07:22:04;98038.59;;;27.47;100.00
6413;BME280;3239;48.714;9.472;2023-06-22T07:24:30;98038.09;;;27.53;100.00
6413;BME280;3239;48.714;9.472;2023-06-22T07:26:56;98042.28;;;27.87;100.00
6413;BME280;3239;48.714;9.472;2023-06-22T07:29:23;98045.72;;;28.03;100.00
6413;BME280;3239;48.714;9.472;2023-06-22T07:31:50;98031.16;;;27.91;100.00
6413;BME280;3239;48.714;9.472;2023-06-22T07:34:17;98030.69;;;28.16;100.00
6413;BME280;3239;48.714;9.472;2023-06-22T07:36:44;98020.66;;;28.11;100.00
6413;BME280;3239;48.714;9.472;2023-06-22T07:39:10;98020.16;;;28.55;100.00
6413;BME280;3239;48.714;9.472;2023-06-22T07:41:36;98016.13;;;28.41;100.00
6413;BME280;3239;48.714;9.472;2023-06-22T07:44:03;98000.91;;;28.30;100.00
6413;BME280;3239;48.714;9.472;2023-06-22T07:46:29;97993.53;;;27.82;100.00
6413;BME280;3239;48.714;9.472;2023-06-22T07:48:56;97995.56;;;27.99;100.00
6413;BME280;3239;48.714;9.472;2023-06-22T07:51:23;97988.50;;;27.98;100.00
6413;BME280;3239;48.714;9.472;2023-06-22T07:53:49;97983.53;;;28.36;100.00
6413;BME280;3239;48.714;9.472;2023-06-22T07:56:15;97974.66;;;29.06;100.00
6413;BME280;3239;48.714;9.472;2023-06-22T07:58:45;97976.78;;;28.64;100.00
6413;BME280;3239;48.714;9.472;2023-06-22T08:01:12;97976.59;;;28.80;100.00
6413;BME280;3239;48.714;9.472;2023-06-22T08:03:38;97968.34;;;28.86;100.00
6413;BME280;3239;48.714;9.472;2023-06-22T08:06:05;97966.75;;;29.45;100.00
6413;BME280;3239;48.714;9.472;2023-06-22T08:08:31;97959.56;;;29.19;100.00
6413;BME280;3239;48.714;9.472;2023-06-22T08:10:57;97948.72;;;29.33;100.00
6413;BME280;3239;48.714;9.472;2023-06-22T08:13:23;97944.31;;;29.98;100.00
6413;BME280;3239;48.714;9.472;2023-06-22T08:15:48;97942.63;;;30.13;100.00
6413;BME280;3239;48.714;9.472;2023-06-22T08:18:14;97931.22;;;30.34;100.00
6413;BME280;3239;48.714;9.472;2023-06-22T08:20:42;97931.78;;;29.80;100.00
6413;BME280;3239;48.714;9.472;2023-06-22T08:23:08;97942.78;;;30.44;100.00
6413;BME280;3239;48.714;9.472;2023-06-22T08:25:34;97939.75;;;30.36;100.00
6413;BME280;3239;48.714;9.472;2023-06-22T08:28:01;97946.31;;;30.45;100.00
6413;BME280;3239;48.714;9.472;2023-06-22T08:30:27;97945.91;;;29.80;100.00
6413;BME280;3239;48.714;9.472;2023-06-22T08:32:53;97944.03;;;30.65;100.00
6413;BME280;3239;48.714;9.472;2023-06-22T08:35:23;97950.22;;;30.32;100.00
6413;BME280;3239;48.714;9.472;2023-06-22T08:37:49;97966.84;;;30.45;100.00
6413;BME280;3239;48.714;9.472;2023-06-22T08:40:22;97981.38;;;30.59;100.00
6413;BME280;3239;48.714;9.472;2023-06-22T08:42:48;97987.38;;;31.58;100.00
6413;BME280;3239;48.714;9.472;2023-06-22T08:45:15;97988.66;;;31.53;100.00
6413;BME280;3239;48.714;9.472;2023-06-22T08:47:41;97984.19;;;32.42;100.00
6413;BME280;3239;48.714;9.472;2023-06-22T08:50:11;97997.97;;;32.22;100.00
6413;BME280;3239;48.714;9.472;2023-06-22T08:52:38;98001.41;;;33.31;100.00
6413;BME280;3239;48.714;9.472;2023-06-22T08:55:07;98012.16;;;33.84;100.00
6413;BME280;3239;48.714;9.472;2023-06-22T08:57:34;98026.16;;;34.22;97.75
6413;BME280;3239;48.714;9.472;2023-06-22T09:00:04;98037.59;;;34.85;92.37
6413;BME280;3239;48.714;9.472;2023-06-22T09:02:30;98032.84;;;35.10;82.83
6413;BME280;3239;48.714;9.472;2023-06-22T09:04:57;98025.97;;;35.35;83.22
6413;BME280;3239;48.714;9.472;2023-06-22T09:07:24;98032.09;;;33.86;84.91
6413;BME280;3239;48.714;9.472;2023-06-22T09:09:51;98014.97;;;32.95;99.14
6413;BME280;3239;48.714;9.472;2023-06-22T09:12:18;97997.66;;;34.18;92.85
6413;BME280;3239;48.714;9.472;2023-06-22T09:14:46;97994.97;;;34.28;87.49
6413;BME280;3239;48.714;9.472;2023-06-22T09:17:13;97994.03;;;33.14;95.64
6413;BME280;3239;48.714;9.472;2023-06-22T09:19:38;97987.75;;;33.22;99.82
6413;BME280;3239;48.714;9.472;2023-06-22T09:22:05;97985.31;;;33.02;100.00
6413;BME280;3239;48.714;9.472;2023-06-22T09:24:32;97991.94;;;33.62;94.99
6413;BME280;3239;48.714;9.472;2023-06-22T09:26:58;97984.22;;;34.86;92.00
6413;BME280;3239;48.714;9.472;2023-06-22T09:29:24;97977.97;;;35.03;87.79
6413;BME280;3239;48.714;9.472;2023-06-22T09:31:50;97972.50;;;35.31;84.63
6413;BME280;3239;48.714;9.472;2023-06-22T09:34:16;97985.63;;;35.72;90.06
6413;BME280;3239;48.714;9.472;2023-06-22T09:36:46;97988.13;;;33.91;87.39
6413;BME280;3239;48.714;9.472;2023-06-22T09:39:12;97987.38;;;32.60;100.00
6413;BME280;3239;48.714;9.472;2023-06-22T09:41:37;97977.81;;;33.68;98.48
6413;BME280;3239;48.714;9.472;2023-06-22T09:44:03;97961.94;;;33.51;95.59
6413;BME280;3239;48.714;9.472;2023-06-22T09:46:29;97964.06;;;34.66;92.48
6413;BME280;3239;48.714;9.472;2023-06-22T09:48:55;97954.53;;;35.11;82.99
6413;BME280;3239;48.714;9.472;2023-06-22T09:51:21;97950.00;;;34.14;89.94
6413;BME280;3239;48.714;9.472;2023-06-22T09:53:47;97955.13;;;33.70;100.00
6413;BME280;3239;48.714;9.472;2023-06-22T09:56:13;97957.88;;;34.85;100.00
6413;BME280;3239;48.714;9.472;2023-06-22T09:58:43;97958.03;;;35.03;89.79
6413;BME280;3239;48.714;9.472;2023-06-22T10:01:09;97958.88;;;34.42;95.58
6413;BME280;3239;48.714;9.472;2023-06-22T10:03:36;97966.97;;;33.09;100.00
6413;BME280;3239;48.714;9.472;2023-06-22T10:06:02;97963.28;;;33.01;100.00
6413;BME280;3239;48.714;9.472;2023-06-22T10:08:29;97959.63;;;33.87;100.00
6413;BME280;3239;48.714;9.472;2023-06-22T10:10:54;97950.91;;;33.26;100.00
6413;BME280;3239;48.714;9.472;2023-06-22T10:13:20;97943.81;;;32.81;100.00
6413;BME280;3239;48.714;9.472;2023-06-22T10:15:46;97940.69;;;31.92;100.00
6413;BME280;3239;48.714;9.472;2023-06-22T10:18:18;97934.91;;;32.61;100.00
6413;BME280;3239;48.714;9.472;2023-06-22T10:20:49;97932.56;;;32.89;100.00
6413;BME280;3239;48.714;9.472;2023-06-22T10:23:21;97928.81;;;33.22;100.00
6413;BME280;3239;48.714;9.472;2023-06-22T10:25:48;97936.28;;;32.58;100.00
6413;BME280;3239;48.714;9.472;2023-06-22T10:28:13;97931.16;;;32.51;100.00
6413;BME280;3239;48.714;9.472;2023-06-22T10:30:40;97926.59;;;31.96;100.00
6413;BME280;3239;48.714;9.472;2023-06-22T10:33:10;97927.72;;;31.83;100.00
6413;BME280;3239;48.714;9.472;2023-06-22T10:35:37;97911.47;;;33.00;100.00
6413;BME280;3239;48.714;9.472;2023-06-22T10:38:06;97909.50;;;34.16;100.00
6413;BME280;3239;48.714;9.472;2023-06-22T10:40:32;97912.72;;;32.89;100.00
6413;BME280;3239;48.714;9.472;2023-06-22T10:42:58;97905.19;;;34.13;100.00
6413;BME280;3239;48.714;9.472;2023-06-22T10:45:24;97894.81;;;35.23;99.84
6413;BME280;3239;48.714;9.472;2023-06-22T10:47:50;97898.19;;;34.22;100.00
6413;BME280;3239;48.714;9.472;2023-06-22T10:50:15;97889.19;;;34.45;99.15
6413;BME280;3239;48.714;9.472;2023-06-22T10:52:41;97891.19;;;33.71;100.00
6413;BME280;3239;48.714;9.472;2023-06-22T10:55:08;97877.97;;;33.94;100.00
6413;BME280;3239;48.714;9.472;2023-06-22T10:57:34;97877.59;;;34.25;97.81
6413;BME280;3239;48.714;9.472;2023-06-22T11:00:00;97872.34;;;34.71;90.47
6413;BME280;3239;48.714;9.472;2023-06-22T11:02:26;97875.31;;;34.81;97.06
6413;BME280;3239;48.714;9.472;2023-06-22T11:04:53;97871.13;;;34.17;100.00
6413;BME280;3239;48.714;9.472;2023-06-22T11:07:19;97868.16;;;34.09;97.48
6413;BME280;3239;48.714;9.472;2023-06-22T11:09:45;97865.75;;;33.81;100.00
6413;BME280;3239;48.714;9.472;2023-06-22T11:12:11;97859.50;;;33.95;92.15
6413;BME280;3239;48.714;9.472;2023-06-22T11:14:38;97870.22;;;33.43;93.44
6413;BME280;3239;48.714;9.472;2023-06-22T11:17:04;97872.94;;;33.35;98.23
6413;BME280;3239;48.714;9.472;2023-06-22T11:19:30;97872.03;;;33.22;100.00
6413;BME280;3239;48.714;9.472;2023-06-22T11:21:56;97879.97;;;33.30;100.00
6413;BME280;3239;48.714;9.472;2023-06-22T11:24:22;97868.69;;;33.89;100.00
6413;BME280;3239;48.714;9.472;2023-06-22T11:26:47;97883.97;;;33.62;100.00
6413;BME280;3239;48.714;9.472;2023-06-22T11:29:13;97874.84;;;33.72;100.00
6413;BME280;3239;48.714;9.472;2023-06-22T11:31:39;97877.38;;;33.48;97.04
6413;BME280;3239;48.714;9.472;2023-06-22T11:34:05;97879.06;;;33.69;98.67
6413;BME280;3239;48.714;9.472;2023-06-22T11:36:30;97867.91;;;33.85;91.58
6413;BME280;3239;48.714;9.472;2023-06-22T11:38:58;97873.53;;;33.27;100.00
6413;BME280;3239;48.714;9.472;2023-06-22T11:41:24;97866.78;;;33.03;100.00
6413;BME280;3239;48.714;9.472;2023-06-22T11:43:50;97850.50;;;32.60;100.00
6413;BME280;3239;48.714;9.472;2023-06-22T11:46:15;97856.53;;;32.38;100.00
6413;BME280;3239;48.714;9.472;2023-06-22T11:48:41;97855.72;;;33.23;100.00
6413;BME280;3239;48.714;9.472;2023-06-22T11:51:07;97843.63;;;33.22;100.00
6413;BME280;3239;48.714;9.472;2023-06-22T11:53:34;97845.56;;;32.23;100.00
6413;BME280;3239;48.714;9.472;2023-06-22T11:56:01;97843.47;;;32.63;100.00
6413;BME280;3239;48.714;9.472;2023-06-22T11:58:27;97842.78;;;32.66;100.00
6413;BME280;3239;48.714;9.472;2023-06-22T12:00:53;97856.56;;;33.31;100.00
6413;BME280;3239;48.714;9.472;2023-06-22T12:03:19;97858.25;;;33.01;100.00
6413;BME280;3239;48.714;9.472;2023-06-22T12:05:47;97859.44;;;32.86;100.00
6413;BME280;3239;48.714;9.472;2023-06-22T12:08:13;97864.31;;;32.40;100.00
6413;BME280;3239;48.714;9.472;2023-06-22T12:10:39;97851.22;;;32.60;100.00
6413;BME280;3239;48.714;9.472;2023-06-22T12:13:05;97843.38;;;33.02;100.00
6413;BME280;3239;48.714;9.472;2023-06-22T12:15:31;97837.13;;;33.67;100.00
6413;BME280;3239;48.714;9.472;2023-06-22T12:17:57;97829.66;;;33.94;100.00
6413;BME280;3239;48.714;9.472;2023-06-22T12:20:22;97827.03;;;34.18;93.23
6413;BME280;3239;48.714;9.472;2023-06-22T12:22:48;97829.78;;;34.08;96.40
6413;BME280;3239;48.714;9.472;2023-06-22T12:25:17;97826.31;;;33.54;100.00
6413;BME280;3239;48.714;9.472;2023-06-22T12:27:42;97826.19;;;33.42;100.00
6413;BME280;3239;48.714;9.472;2023-06-22T12:30:09;97834.56;;;32.84;100.00
6413;BME280;3239;48.714;9.472;2023-06-22T12:32:34;97833.69;;;32.74;100.00
6413;BME280;3239;48.714;9.472;2023-06-22T12:35:00;97831.22;;;32.52;100.00
6413;BME280;3239;48.714;9.472;2023-06-22T12:37:26;97841.47;;;32.73;100.00
6413;BME280;3239;48.714;9.472;2023-06-22T12:39:54;97849.44;;;32.02;100.00
6413;BME280;3239;48.714;9.472;2023-06-22T12:42:19;97855.97;;;32.48;100.00
6413;BME280;3239;48.714;9.472;2023-06-22T12:44:46;97855.66;;;32.71;100.00
6413;BME280;3239;48.714;9.472;2023-06-22T12:47:12;97861.56;;;32.85;100.00
6413;BME280;3239;48.714;9.472;2023-06-22T12:49:38;97863.69;;;32.85;100.00
6413;BME280;3239;48.714;9.472;2023-06-22T12:52:09;97872.84;;;32.81;100.00
6413;BME280;3239;48.714;9.472;2023-06-22T12:54:35;97876.66;;;32.54;100.00
6413;BME280;3239;48.714;9.472;2023-06-22T12:57:02;97894.44;;;32.59;100.00
6413;BME280;3239;48.714;9.472;2023-06-22T12:59:27;97897.75;;;32.85;100.00
6413;BME280;3239;48.714;9.472;2023-06-22T13:01:53;97896.25;;;32.80;100.00
6413;BME280;3239;48.714;9.472;2023-06-22T13:04:19;97892.69;;;32.79;100.00
6413;BME280;3239;48.714;9.472;2023-06-22T13:06:45;97887.72;;;32.78;100.00
6413;BME280;3239;48.714;9.472;2023-06-22T13:09:14;97883.72;;;32.97;100.00
6413;BME280;3239;48.714;9.472;2023-06-22T13:11:40;97876.97;;;33.20;100.00
6413;BME280;3239;48.714;9.472;2023-06-22T13:14:06;97854.50;;;33.36;100.00
6413;BME280;3239;48.714;9.472;2023-06-22T13:16:32;97867.59;;;33.59;100.00
6413;BME280;3239;48.714;9.472;2023-06-22T13:18:58;97866.19;;;33.62;100.00
6413;BME280;3239;48.714;9.472;2023-06-22T13:21:23;97856.50;;;33.79;100.00
6413;BME280;3239;48.714;9.472;2023-06-22T13:23:49;97837.72;;;34.19;100.00